Pagina principale
METAR-TAF:

METAR-TAF

Aeroporti :

Catania, Italia

Aeroporto di Catania-Fontanarossa

latitudine: 37-28N, longitudine: 015-03E, altezza: 11 m

Osservazione

Il bollettino è stato emesso 15 minuti fa, alle 06:20 UTC
Vento 9 kt da ovest
Temperature 10°C
Umidità 87%
Pressione 1014 hPa
Visibilità 10 km o più
nessuna nube inferiore a 1500 m e nessun cumulonembo

METAR: LICC 170620Z 26009KT CAVOK 10/08 Q1014

Ora: 07:35 (06:35 UTC)

Previsione

Il bollettino è stato emesso 1 ora e 35 minuti fa, alle 05:00 UTC
Previsione valida dal 17 alle 06 UTC al 18 alle 06 UTC
Vento 16 kt da ovest/sud-ovest
Visibilità 10 km o più
Nubi sparse ad un'altezza di 3000 ft
Evoluzione graduale
dal 17 alle 20 UTC al 17 alle 22 UTC
Vento 8 kt da nord-ovest

TAF: LICC 170500Z 1706/1806 25016KT 9999 SCT030 BECMG 1720/1722 31008KT

Osservazioni e previsioni meteorologiche di più di 4000 aeroporti (messaggi METAR e TAF).

Le stazioni disponibili sono rappresentate dai dischi gialli e rossi sulla carta.

Puntare il mouse per vedere il nome della stazione.

Clicca sopra per visualizzare le osservazioni e previsioni meteorologiche.

Per cambiare la mappa : fare clic sui pulsanti verdi con una croce nera per ingrandire, il pulsante verde con un trattino per diminuire, o sulla freccia verde per le mappe adiacenti.


METAR-TAF: